UPLA180 UACC-UNOO
Flight info
| Callsign | UPLA180 |
|---|---|
| Flight time | N/A |
| Altitude | FL120 |
| Route | OLGAS M75 DAKIN R706 ALODA |
| Aircraft | DA42/L-SDFGRY/C |
Departure
| Time | N/A |
|---|---|
| Airport | Nursultan Nazarbayev International Airport (UACC) |
Arrival
| Time | 2026-05-05 16:03 |
|---|---|
| Airport | Omsk Central Airport (UNOO) |
| Time | Latitude | Longitude | Altitude | Speed | Heading |
|---|---|---|---|---|---|
| 2026-05-05 15:13 | 52.65046 | 71.92352 | 11921 ft | 177 kts | 0° |
| 2026-05-05 15:13 | 52.66254 | 71.92724 | 11919 ft | 178 kts | 0° |
| 2026-05-05 15:13 | 52.67470 | 71.93099 | 11920 ft | 178 kts | 0° |
| 2026-05-05 15:13 | 52.68690 | 71.93476 | 11922 ft | 179 kts | 0° |
| 2026-05-05 15:14 | 52.69919 | 71.93855 | 11922 ft | 180 kts | 0° |
| 2026-05-05 15:14 | 52.71148 | 71.94235 | 11919 ft | 180 kts | 0° |
| 2026-05-05 15:14 | 52.72379 | 71.94616 | 11920 ft | 180 kts | 0° |
| 2026-05-05 15:14 | 52.73609 | 71.94996 | 11918 ft | 181 kts | 0° |
| 2026-05-05 15:15 | 52.74845 | 71.95378 | 11922 ft | 181 kts | 1° |
| 2026-05-05 15:15 | 52.76077 | 71.95759 | 11925 ft | 181 kts | 1° |
| 2026-05-05 15:15 | 52.77315 | 71.96143 | 11926 ft | 181 kts | 1° |
| 2026-05-05 15:15 | 52.78553 | 71.96527 | 11927 ft | 181 kts | 1° |
| 2026-05-05 15:16 | 52.79792 | 71.96911 | 11930 ft | 181 kts | 1° |
| 2026-05-05 15:16 | 52.81030 | 71.97295 | 11930 ft | 181 kts | 1° |
| 2026-05-05 15:16 | 52.82266 | 71.97679 | 11930 ft | 181 kts | 1° |
| 2026-05-05 15:16 | 52.83503 | 71.98063 | 11931 ft | 181 kts | 1° |
| 2026-05-05 15:17 | 52.84740 | 71.98447 | 11929 ft | 181 kts | 1° |
| 2026-05-05 15:17 | 52.85976 | 71.98831 | 11929 ft | 181 kts | 1° |
| 2026-05-05 15:17 | 52.87217 | 71.99218 | 11955 ft | 182 kts | 0° |
| 2026-05-05 15:17 | 52.88467 | 71.99605 | 11929 ft | 184 kts | 0° |
| 2026-05-05 15:18 | 52.89727 | 71.99998 | 11932 ft | 184 kts | 0° |
| 2026-05-05 15:18 | 52.90984 | 72.00391 | 11933 ft | 184 kts | 0° |
| 2026-05-05 15:18 | 52.92243 | 72.00783 | 11933 ft | 185 kts | 0° |
| 2026-05-05 15:18 | 52.93498 | 72.01175 | 11933 ft | 184 kts | 360° |
| 2026-05-05 15:19 | 52.94756 | 72.01568 | 11936 ft | 184 kts | 360° |
| 2026-05-05 15:19 | 52.96007 | 72.01959 | 11937 ft | 183 kts | 360° |
| 2026-05-05 15:19 | 52.97257 | 72.02350 | 11937 ft | 183 kts | 360° |
| 2026-05-05 15:19 | 52.98502 | 72.02740 | 11935 ft | 183 kts | 360° |
| 2026-05-05 15:20 | 52.99753 | 72.03130 | 11934 ft | 183 kts | 360° |
| 2026-05-05 15:20 | 53.00998 | 72.03521 | 11934 ft | 183 kts | 360° |
| 2026-05-05 15:20 | 53.02245 | 72.03912 | 11935 ft | 183 kts | 360° |
| 2026-05-05 15:20 | 53.03492 | 72.04303 | 11936 ft | 183 kts | 360° |
| 2026-05-05 15:21 | 53.04743 | 72.04695 | 11933 ft | 183 kts | 360° |
| 2026-05-05 15:21 | 53.05991 | 72.05087 | 11932 ft | 183 kts | 360° |
| 2026-05-05 15:21 | 53.07238 | 72.05478 | 11933 ft | 183 kts | 360° |
| 2026-05-05 15:21 | 53.08485 | 72.05870 | 11933 ft | 183 kts | 0° |
| 2026-05-05 15:22 | 53.09730 | 72.06261 | 11935 ft | 183 kts | 0° |
| 2026-05-05 15:22 | 53.10981 | 72.06655 | 11935 ft | 183 kts | 0° |
| 2026-05-05 15:22 | 53.12228 | 72.07048 | 11935 ft | 183 kts | 0° |
| 2026-05-05 15:22 | 53.13481 | 72.07443 | 11935 ft | 183 kts | 0° |
| 2026-05-05 15:23 | 53.14732 | 72.07836 | 11936 ft | 185 kts | 359° |
| 2026-05-05 15:23 | 53.15997 | 72.08234 | 11936 ft | 186 kts | 359° |
| 2026-05-05 15:23 | 53.17268 | 72.08635 | 11937 ft | 186 kts | 359° |
| 2026-05-05 15:23 | 53.18536 | 72.09036 | 11937 ft | 186 kts | 359° |
| 2026-05-05 15:24 | 53.19805 | 72.09438 | 11934 ft | 186 kts | 359° |
| 2026-05-05 15:24 | 53.21071 | 72.09838 | 11934 ft | 186 kts | 359° |
| 2026-05-05 15:24 | 53.22344 | 72.10241 | 11934 ft | 186 kts | 359° |
| 2026-05-05 15:24 | 53.23611 | 72.10642 | 11934 ft | 186 kts | 359° |
| 2026-05-05 15:25 | 53.24882 | 72.11044 | 11938 ft | 186 kts | 359° |
| 2026-05-05 15:25 | 53.26156 | 72.11448 | 11939 ft | 186 kts | 359° |
| 2026-05-05 15:25 | 53.27427 | 72.11851 | 11938 ft | 186 kts | 359° |
| 2026-05-05 15:25 | 53.28699 | 72.12255 | 11938 ft | 186 kts | 359° |
| 2026-05-05 15:26 | 53.29968 | 72.12658 | 11940 ft | 186 kts | 359° |
| 2026-05-05 15:26 | 53.31243 | 72.13063 | 11939 ft | 187 kts | 359° |
| 2026-05-05 15:26 | 53.32516 | 72.13467 | 11939 ft | 187 kts | 359° |
| 2026-05-05 15:26 | 53.33789 | 72.13872 | 11939 ft | 187 kts | 359° |
| 2026-05-05 15:27 | 53.35059 | 72.14276 | 11935 ft | 187 kts | 359° |
| 2026-05-05 15:27 | 53.36335 | 72.14683 | 11935 ft | 187 kts | 359° |
| 2026-05-05 15:27 | 53.37608 | 72.15088 | 11936 ft | 187 kts | 359° |
| 2026-05-05 15:27 | 53.38878 | 72.15494 | 11935 ft | 187 kts | 359° |
| 2026-05-05 15:28 | 53.40152 | 72.15900 | 11938 ft | 187 kts | 359° |
| 2026-05-05 15:28 | 53.41426 | 72.16307 | 11956 ft | 187 kts | 359° |
| 2026-05-05 15:28 | 53.42719 | 72.16718 | 11932 ft | 190 kts | 359° |
| 2026-05-05 15:28 | 53.44014 | 72.17132 | 11932 ft | 190 kts | 359° |
| 2026-05-05 15:29 | 53.45308 | 72.17546 | 11931 ft | 190 kts | 359° |
| 2026-05-05 15:29 | 53.46609 | 72.17963 | 11928 ft | 191 kts | 359° |
| 2026-05-05 15:29 | 53.47906 | 72.18378 | 11933 ft | 190 kts | 359° |
| 2026-05-05 15:29 | 53.49205 | 72.18796 | 11933 ft | 190 kts | 359° |
| 2026-05-05 15:30 | 53.50500 | 72.19211 | 11933 ft | 190 kts | 359° |
| 2026-05-05 15:30 | 53.51795 | 72.19626 | 11933 ft | 190 kts | 359° |
| 2026-05-05 15:30 | 53.53090 | 72.20042 | 11931 ft | 190 kts | 359° |
| 2026-05-05 15:30 | 53.54387 | 72.20458 | 11925 ft | 190 kts | 359° |
| 2026-05-05 15:31 | 53.55685 | 72.20875 | 11931 ft | 190 kts | 359° |
| 2026-05-05 15:31 | 53.56983 | 72.21293 | 11931 ft | 190 kts | 359° |
| 2026-05-05 15:31 | 53.58281 | 72.21710 | 11931 ft | 190 kts | 359° |
| 2026-05-05 15:31 | 53.59578 | 72.22128 | 11931 ft | 190 kts | 359° |
| 2026-05-05 15:32 | 53.60873 | 72.22545 | 11933 ft | 190 kts | 359° |
| 2026-05-05 15:32 | 53.62170 | 72.22964 | 11933 ft | 190 kts | 359° |
| 2026-05-05 15:32 | 53.63471 | 72.23383 | 11930 ft | 190 kts | 359° |
| 2026-05-05 15:32 | 53.64766 | 72.23802 | 11930 ft | 190 kts | 359° |
| 2026-05-05 15:33 | 53.66065 | 72.24221 | 11930 ft | 190 kts | 359° |
| 2026-05-05 15:33 | 53.67362 | 72.24641 | 11930 ft | 190 kts | 359° |
| 2026-05-05 15:33 | 53.68664 | 72.25061 | 11951 ft | 191 kts | 359° |
| 2026-05-05 15:33 | 53.69972 | 72.25483 | 11926 ft | 192 kts | 359° |
| 2026-05-05 15:34 | 53.71277 | 72.25907 | 11930 ft | 192 kts | 359° |
| 2026-05-05 15:34 | 53.72586 | 72.26332 | 11930 ft | 191 kts | 359° |
| 2026-05-05 15:34 | 53.73891 | 72.26755 | 11930 ft | 191 kts | 359° |
| 2026-05-05 15:34 | 53.75195 | 72.27178 | 11924 ft | 191 kts | 359° |
| 2026-05-05 15:35 | 53.76499 | 72.27601 | 11923 ft | 191 kts | 359° |
| 2026-05-05 15:35 | 53.77804 | 72.28025 | 11924 ft | 192 kts | 359° |
| 2026-05-05 15:35 | 53.79110 | 72.28450 | 11923 ft | 192 kts | 359° |
| 2026-05-05 15:35 | 53.80416 | 72.28875 | 11923 ft | 191 kts | 359° |
| 2026-05-05 15:36 | 53.81721 | 72.29299 | 11927 ft | 191 kts | 359° |
| 2026-05-05 15:36 | 53.83022 | 72.29723 | 11927 ft | 191 kts | 359° |
| 2026-05-05 15:36 | 53.84327 | 72.30149 | 11927 ft | 191 kts | 359° |
| 2026-05-05 15:36 | 53.85629 | 72.30573 | 11922 ft | 191 kts | 359° |
| 2026-05-05 15:37 | 53.86931 | 72.30998 | 11920 ft | 191 kts | 359° |
| 2026-05-05 15:37 | 53.88232 | 72.31422 | 11920 ft | 191 kts | 359° |
| 2026-05-05 15:37 | 53.89537 | 72.31849 | 11920 ft | 191 kts | 359° |
| 2026-05-05 15:37 | 53.90843 | 72.32275 | 11919 ft | 191 kts | 359° |
| 2026-05-05 15:38 | 53.92143 | 72.32701 | 11919 ft | 191 kts | 359° |
| 2026-05-05 15:38 | 53.93447 | 72.33127 | 11918 ft | 191 kts | 359° |
| 2026-05-05 15:38 | 53.94752 | 72.33555 | 11918 ft | 191 kts | 359° |
| 2026-05-05 15:38 | 53.96052 | 72.33981 | 11943 ft | 191 kts | 359° |
| 2026-05-05 15:39 | 53.97366 | 72.34411 | 11914 ft | 193 kts | 359° |
| 2026-05-05 15:39 | 53.98681 | 72.34843 | 11913 ft | 193 kts | 359° |
| 2026-05-05 15:39 | 53.99993 | 72.35274 | 11912 ft | 192 kts | 359° |
| 2026-05-05 15:39 | 54.01305 | 72.35705 | 11911 ft | 192 kts | 359° |
| 2026-05-05 15:40 | 54.02611 | 72.36138 | 11907 ft | 191 kts | 360° |
| 2026-05-05 15:40 | 54.03911 | 72.36567 | 11907 ft | 191 kts | 359° |
| 2026-05-05 15:40 | 54.05209 | 72.36991 | 11907 ft | 190 kts | 359° |
| 2026-05-05 15:40 | 54.06507 | 72.37418 | 11907 ft | 190 kts | 359° |
| 2026-05-05 15:41 | 54.07802 | 72.37845 | 11902 ft | 190 kts | 359° |
| 2026-05-05 15:41 | 54.09102 | 72.38273 | 11901 ft | 191 kts | 359° |
| 2026-05-05 15:41 | 54.10400 | 72.38701 | 11900 ft | 191 kts | 359° |
| 2026-05-05 15:41 | 54.11699 | 72.39131 | 11899 ft | 190 kts | 359° |
| 2026-05-05 15:42 | 54.12994 | 72.39559 | 11906 ft | 190 kts | 359° |
| 2026-05-05 15:42 | 54.14287 | 72.39987 | 11906 ft | 190 kts | 359° |
| 2026-05-05 15:42 | 54.15578 | 72.40473 | 11905 ft | 194 kts | 8° |
| 2026-05-05 15:42 | 54.16803 | 72.41544 | 11907 ft | 201 kts | 25° |
| 2026-05-05 15:43 | 54.17981 | 72.42825 | 11907 ft | 201 kts | 26° |
| 2026-05-05 15:43 | 54.19151 | 72.44119 | 11895 ft | 201 kts | 26° |
| 2026-05-05 15:43 | 54.20321 | 72.45406 | 11894 ft | 200 kts | 26° |
| 2026-05-05 15:43 | 54.21491 | 72.46687 | 11894 ft | 200 kts | 26° |
| 2026-05-05 15:44 | 54.22658 | 72.47965 | 11896 ft | 200 kts | 26° |
| 2026-05-05 15:44 | 54.23827 | 72.49245 | 11895 ft | 200 kts | 26° |
| 2026-05-05 15:44 | 54.24995 | 72.50528 | 11920 ft | 201 kts | 26° |
| 2026-05-05 15:44 | 54.26173 | 72.51822 | 11898 ft | 202 kts | 26° |
| 2026-05-05 15:45 | 54.27353 | 72.53120 | 11901 ft | 202 kts | 26° |
| 2026-05-05 15:45 | 54.28532 | 72.54417 | 11900 ft | 201 kts | 26° |
| 2026-05-05 15:45 | 54.29707 | 72.55710 | 11900 ft | 201 kts | 26° |
| 2026-05-05 15:45 | 54.30878 | 72.57000 | 11899 ft | 201 kts | 26° |
| 2026-05-05 15:46 | 54.32051 | 72.58292 | 11892 ft | 200 kts | 26° |
| 2026-05-05 15:46 | 54.33219 | 72.59579 | 11891 ft | 200 kts | 26° |
| 2026-05-05 15:46 | 54.34388 | 72.60869 | 11891 ft | 200 kts | 26° |
| 2026-05-05 15:46 | 54.35549 | 72.62150 | 11889 ft | 199 kts | 26° |
| 2026-05-05 15:47 | 54.36713 | 72.63437 | 11888 ft | 199 kts | 26° |
| 2026-05-05 15:47 | 54.37488 | 72.64294 | 11889 ft | 199 kts | 26° |
| 2026-05-05 15:47 | 54.39037 | 72.66008 | 11872 ft | 200 kts | 26° |
| 2026-05-05 15:47 | 54.40221 | 72.67317 | 11676 ft | 206 kts | 27° |
| 2026-05-05 15:48 | 54.41440 | 72.68667 | 11431 ft | 211 kts | 27° |
| 2026-05-05 15:48 | 54.42675 | 72.70042 | 11162 ft | 213 kts | 28° |
| 2026-05-05 15:48 | 54.43926 | 72.71430 | 10877 ft | 215 kts | 28° |
| 2026-05-05 15:48 | 54.45189 | 72.72831 | 10594 ft | 217 kts | 29° |
| 2026-05-05 15:49 | 54.46457 | 72.74240 | 10305 ft | 218 kts | 30° |
| 2026-05-05 15:49 | 54.47728 | 72.75654 | 10021 ft | 219 kts | 30° |
| 2026-05-05 15:49 | 54.49010 | 72.77080 | 9729 ft | 220 kts | 30° |
| 2026-05-05 15:49 | 54.50296 | 72.78513 | 9414 ft | 221 kts | 30° |
| 2026-05-05 15:50 | 54.51580 | 72.79944 | 9112 ft | 220 kts | 30° |
| 2026-05-05 15:50 | 54.52857 | 72.81369 | 8826 ft | 219 kts | 30° |
| 2026-05-05 15:50 | 54.54129 | 72.82789 | 8536 ft | 218 kts | 29° |
| 2026-05-05 15:50 | 54.55392 | 72.84199 | 8254 ft | 217 kts | 30° |
| 2026-05-05 15:51 | 54.56650 | 72.85608 | 7996 ft | 216 kts | 27° |
| 2026-05-05 15:51 | 54.57913 | 72.87021 | 7688 ft | 217 kts | 27° |
| 2026-05-05 15:51 | 54.59175 | 72.88433 | 7400 ft | 216 kts | 27° |
| 2026-05-05 15:51 | 54.60434 | 72.89844 | 7112 ft | 216 kts | 27° |
| 2026-05-05 15:52 | 54.61733 | 72.91091 | 6832 ft | 211 kts | 15° |
| 2026-05-05 15:52 | 54.63069 | 72.92095 | 6584 ft | 209 kts | 14° |
| 2026-05-05 15:52 | 54.64398 | 72.93076 | 6333 ft | 208 kts | 14° |
| 2026-05-05 15:52 | 54.65723 | 72.94057 | 6066 ft | 206 kts | 14° |
| 2026-05-05 15:53 | 54.67027 | 72.95032 | 5812 ft | 204 kts | 14° |
| 2026-05-05 15:53 | 54.68315 | 72.95997 | 5561 ft | 201 kts | 14° |
| 2026-05-05 15:53 | 54.69591 | 72.96951 | 5305 ft | 199 kts | 14° |
| 2026-05-05 15:53 | 54.70846 | 72.97896 | 5066 ft | 196 kts | 13° |
| 2026-05-05 15:54 | 54.72088 | 72.98821 | 4845 ft | 192 kts | 13° |
| 2026-05-05 15:54 | 54.73288 | 72.99714 | 4685 ft | 186 kts | 12° |
| 2026-05-05 15:54 | 54.74475 | 73.00593 | 4467 ft | 186 kts | 13° |
| 2026-05-05 15:54 | 54.75652 | 73.01482 | 4239 ft | 184 kts | 13° |
| 2026-05-05 15:55 | 54.76812 | 73.02356 | 4024 ft | 181 kts | 13° |
| 2026-05-05 15:55 | 54.77955 | 73.03213 | 3803 ft | 178 kts | 13° |
| 2026-05-05 15:55 | 54.79083 | 73.04056 | 3539 ft | 178 kts | 14° |
| 2026-05-05 15:55 | 54.80207 | 73.04907 | 3286 ft | 174 kts | 16° |
| 2026-05-05 15:56 | 54.81263 | 73.05713 | 3154 ft | 162 kts | 14° |
| 2026-05-05 15:56 | 54.82276 | 73.06469 | 2970 ft | 158 kts | 14° |
| 2026-05-05 15:56 | 54.83317 | 73.06950 | 2778 ft | 155 kts | 355° |
| 2026-05-05 15:56 | 54.84348 | 73.06750 | 2680 ft | 147 kts | 338° |
| 2026-05-05 15:57 | 54.85341 | 73.06349 | 2583 ft | 147 kts | 338° |
| 2026-05-05 15:57 | 54.86333 | 73.05941 | 2494 ft | 147 kts | 338° |
| 2026-05-05 15:57 | 54.87332 | 73.05531 | 2391 ft | 148 kts | 338° |
| 2026-05-05 15:57 | 54.88336 | 73.05120 | 2296 ft | 149 kts | 338° |
| 2026-05-05 15:58 | 54.89346 | 73.04705 | 2203 ft | 149 kts | 337° |
| 2026-05-05 15:58 | 54.90357 | 73.04295 | 2108 ft | 151 kts | 339° |
| 2026-05-05 15:58 | 54.91409 | 73.04274 | 1993 ft | 152 kts | 2° |
| 2026-05-05 15:58 | 54.92383 | 73.04936 | 1891 ft | 152 kts | 26° |
| 2026-05-05 15:59 | 54.93152 | 73.06193 | 1893 ft | 154 kts | 51° |
| 2026-05-05 15:59 | 54.93606 | 73.07872 | 1894 ft | 154 kts | 74° |
| 2026-05-05 15:59 | 54.93862 | 73.09576 | 1879 ft | 140 kts | 77° |
| 2026-05-05 15:59 | 54.94081 | 73.11167 | 1878 ft | 132 kts | 79° |
| 2026-05-05 16:00 | 54.94282 | 73.12686 | 1864 ft | 127 kts | 79° |
| 2026-05-05 16:00 | 54.94479 | 73.14162 | 1864 ft | 124 kts | 78° |
| 2026-05-05 16:00 | 54.94673 | 73.15624 | 1869 ft | 125 kts | 78° |
| 2026-05-05 16:00 | 54.94866 | 73.17083 | 1860 ft | 125 kts | 78° |
| 2026-05-05 16:01 | 54.95071 | 73.18620 | 1691 ft | 135 kts | 78° |
| 2026-05-05 16:01 | 54.95285 | 73.20241 | 1477 ft | 139 kts | 79° |
| 2026-05-05 16:01 | 54.95498 | 73.21879 | 1272 ft | 139 kts | 79° |
| 2026-05-05 16:01 | 54.95710 | 73.23477 | 1066 ft | 131 kts | 79° |
| 2026-05-05 16:02 | 54.95905 | 73.24896 | 885 ft | 106 kts | 80° |
| 2026-05-05 16:02 | 54.96048 | 73.26018 | 750 ft | 93 kts | 80° |
| 2026-05-05 16:02 | 54.96192 | 73.27072 | 621 ft | 87 kts | 82° |
| 2026-05-05 16:02 | 54.96328 | 73.28093 | 484 ft | 87 kts | 79° |
| 2026-05-05 16:03 | 54.96456 | 73.29079 | 361 ft | 82 kts | 80° |
| 2026-05-05 16:03 | 54.96567 | 73.29918 | 311 ft | 57 kts | 77° |
| 2026-05-05 16:03 | 54.96640 | 73.30492 | 306 ft | 45 kts | 78° |
| 2026-05-05 16:03 | 54.96709 | 73.30993 | 303 ft | 41 kts | 78° |
| 2026-05-05 16:04 | 54.96771 | 73.31456 | 300 ft | 37 kts | 74° |
| 2026-05-05 16:04 | 54.96827 | 73.31880 | 304 ft | 35 kts | 78° |
| 2026-05-05 16:04 | 54.96781 | 73.32087 | 303 ft | 19 kts | 162° |
| 2026-05-05 16:04 | 54.96650 | 73.32144 | 298 ft | 19 kts | 167° |
| 2026-05-05 16:05 | 54.96519 | 73.32196 | 293 ft | 19 kts | 166° |
| 2026-05-05 16:05 | 54.96390 | 73.32240 | 292 ft | 18 kts | 194° |
| 2026-05-05 16:05 | 54.96323 | 73.32101 | 292 ft | 13 kts | 298° |
| 2026-05-05 16:05 | 54.96372 | 73.32019 | 295 ft | 1 kts | 316° |
| 2026-05-05 16:06 | 54.96373 | 73.32017 | 294 ft | 0 kts | 316° |